sensor_id;sensor_type;location;lat;lon;timestamp;temperature;humidity
10644;DHT22;5370;50.132;8.626;2023-05-19T00:01:09;9.90;62.10
10644;DHT22;5370;50.132;8.626;2023-05-19T00:03:35;9.90;62.20
10644;DHT22;5370;50.132;8.626;2023-05-19T00:06:05;9.90;62.70
10644;DHT22;5370;50.132;8.626;2023-05-19T00:08:33;9.80;62.70
10644;DHT22;5370;50.132;8.626;2023-05-19T00:11:00;9.80;62.90
10644;DHT22;5370;50.132;8.626;2023-05-19T00:13:26;9.80;63.30
10644;DHT22;5370;50.132;8.626;2023-05-19T00:15:52;9.70;63.30
10644;DHT22;5370;50.132;8.626;2023-05-19T00:18:17;9.70;63.50
10644;DHT22;5370;50.132;8.626;2023-05-19T00:20:43;9.70;63.60
10644;DHT22;5370;50.132;8.626;2023-05-19T00:23:10;9.70;63.70
10644;DHT22;5370;50.132;8.626;2023-05-19T00:25:35;9.70;64.00
10644;DHT22;5370;50.132;8.626;2023-05-19T00:28:01;9.70;64.10
10644;DHT22;5370;50.132;8.626;2023-05-19T00:30:28;9.60;64.10
10644;DHT22;5370;50.132;8.626;2023-05-19T00:32:54;9.60;64.30
10644;DHT22;5370;50.132;8.626;2023-05-19T00:35:19;9.60;64.30
10644;DHT22;5370;50.132;8.626;2023-05-19T00:37:46;9.60;64.60
10644;DHT22;5370;50.132;8.626;2023-05-19T00:40:11;9.50;64.50
10644;DHT22;5370;50.132;8.626;2023-05-19T00:42:37;9.40;64.40
10644;DHT22;5370;50.132;8.626;2023-05-19T00:45:04;9.50;64.80
10644;DHT22;5370;50.132;8.626;2023-05-19T00:47:29;9.50;64.90
10644;DHT22;5370;50.132;8.626;2023-05-19T00:49:55;9.50;65.10
10644;DHT22;5370;50.132;8.626;2023-05-19T00:52:21;9.50;65.00
10644;DHT22;5370;50.132;8.626;2023-05-19T00:54:46;9.40;64.90
10644;DHT22;5370;50.132;8.626;2023-05-19T00:57:13;9.40;65.10
10644;DHT22;5370;50.132;8.626;2023-05-19T00:59:39;9.40;65.20
10644;DHT22;5370;50.132;8.626;2023-05-19T01:02:04;9.40;65.50
10644;DHT22;5370;50.132;8.626;2023-05-19T01:04:32;9.30;65.60
10644;DHT22;5370;50.132;8.626;2023-05-19T01:07:00;9.30;66.00
10644;DHT22;5370;50.132;8.626;2023-05-19T01:09:25;9.30;66.00
10644;DHT22;5370;50.132;8.626;2023-05-19T01:11:51;9.20;66.10
10644;DHT22;5370;50.132;8.626;2023-05-19T01:14:18;9.20;66.30
10644;DHT22;5370;50.132;8.626;2023-05-19T01:17:00;9.20;66.40
10644;DHT22;5370;50.132;8.626;2023-05-19T01:25:18;9.10;67.00
10644;DHT22;5370;50.132;8.626;2023-05-19T01:30:39;9.00;67.30
10644;DHT22;5370;50.132;8.626;2023-05-19T01:33:07;8.90;67.50
10644;DHT22;5370;50.132;8.626;2023-05-19T01:35:35;8.90;67.80
10644;DHT22;5370;50.132;8.626;2023-05-19T01:38:03;8.80;68.00
10644;DHT22;5370;50.132;8.626;2023-05-19T01:40:29;8.80;68.10
10644;DHT22;5370;50.132;8.626;2023-05-19T01:42:58;8.80;68.60
10644;DHT22;5370;50.132;8.626;2023-05-19T01:45:26;8.70;68.70
10644;DHT22;5370;50.132;8.626;2023-05-19T01:47:54;8.70;68.80
10644;DHT22;5370;50.132;8.626;2023-05-19T01:50:21;8.70;69.20
10644;DHT22;5370;50.132;8.626;2023-05-19T01:52:46;8.60;69.30
10644;DHT22;5370;50.132;8.626;2023-05-19T01:55:12;8.60;69.70
10644;DHT22;5370;50.132;8.626;2023-05-19T02:08:23;8.50;71.50
10644;DHT22;5370;50.132;8.626;2023-05-19T02:10:56;8.50;71.70
10644;DHT22;5370;50.132;8.626;2023-05-19T02:13:25;8.50;71.70
10644;DHT22;5370;50.132;8.626;2023-05-19T02:15:53;8.50;72.00
10644;DHT22;5370;50.132;8.626;2023-05-19T02:18:22;8.50;72.20
10644;DHT22;5370;50.132;8.626;2023-05-19T02:20:49;8.40;72.20
10644;DHT22;5370;50.132;8.626;2023-05-19T02:23:14;8.40;72.30
10644;DHT22;5370;50.132;8.626;2023-05-19T02:25:40;8.40;72.50
10644;DHT22;5370;50.132;8.626;2023-05-19T02:28:06;8.40;72.60
10644;DHT22;5370;50.132;8.626;2023-05-19T02:30:31;8.40;72.60
10644;DHT22;5370;50.132;8.626;2023-05-19T02:32:57;8.50;72.80
10644;DHT22;5370;50.132;8.626;2023-05-19T02:35:22;8.40;72.80
10644;DHT22;5370;50.132;8.626;2023-05-19T02:37:48;8.40;73.60
10644;DHT22;5370;50.132;8.626;2023-05-19T02:40:13;8.40;73.10
10644;DHT22;5370;50.132;8.626;2023-05-19T02:42:39;8.40;73.20
10644;DHT22;5370;50.132;8.626;2023-05-19T02:45:05;8.30;73.20
10644;DHT22;5370;50.132;8.626;2023-05-19T02:47:31;8.30;73.50
10644;DHT22;5370;50.132;8.626;2023-05-19T02:49:56;8.30;73.60
10644;DHT22;5370;50.132;8.626;2023-05-19T02:52:22;8.20;73.80
10644;DHT22;5370;50.132;8.626;2023-05-19T02:54:47;8.20;73.90
10644;DHT22;5370;50.132;8.626;2023-05-19T02:57:13;8.20;74.40
10644;DHT22;5370;50.132;8.626;2023-05-19T02:59:38;8.20;74.50
10644;DHT22;5370;50.132;8.626;2023-05-19T03:02:05;8.20;74.60
10644;DHT22;5370;50.132;8.626;2023-05-19T03:04:30;8.20;74.80
10644;DHT22;5370;50.132;8.626;2023-05-19T03:06:56;8.10;75.00
10644;DHT22;5370;50.132;8.626;2023-05-19T03:09:22;8.10;75.10
10644;DHT22;5370;50.132;8.626;2023-05-19T03:11:47;8.10;75.40
10644;DHT22;5370;50.132;8.626;2023-05-19T03:14:13;8.10;75.50
10644;DHT22;5370;50.132;8.626;2023-05-19T03:16:39;8.10;75.80
10644;DHT22;5370;50.132;8.626;2023-05-19T03:19:06;8.10;76.00
10644;DHT22;5370;50.132;8.626;2023-05-19T03:21:32;8.10;76.40
10644;DHT22;5370;50.132;8.626;2023-05-19T03:23:59;8.10;76.40
10644;DHT22;5370;50.132;8.626;2023-05-19T03:26:24;8.10;76.50
10644;DHT22;5370;50.132;8.626;2023-05-19T03:28:50;8.10;76.70
10644;DHT22;5370;50.132;8.626;2023-05-19T03:31:16;8.10;76.80
10644;DHT22;5370;50.132;8.626;2023-05-19T03:33:41;8.10;77.00
10644;DHT22;5370;50.132;8.626;2023-05-19T03:36:07;8.00;77.10
10644;DHT22;5370;50.132;8.626;2023-05-19T03:38:33;8.10;77.40
10644;DHT22;5370;50.132;8.626;2023-05-19T03:40:58;8.00;77.40
10644;DHT22;5370;50.132;8.626;2023-05-19T03:43:24;8.00;77.70
10644;DHT22;5370;50.132;8.626;2023-05-19T03:45:49;8.00;77.80
10644;DHT22;5370;50.132;8.626;2023-05-19T03:48:15;8.00;78.10
10644;DHT22;5370;50.132;8.626;2023-05-19T03:50:40;8.00;78.40
10644;DHT22;5370;50.132;8.626;2023-05-19T03:53:06;8.00;78.60
10644;DHT22;5370;50.132;8.626;2023-05-19T03:55:32;8.00;78.70
10644;DHT22;5370;50.132;8.626;2023-05-19T03:57:58;8.00;79.00
10644;DHT22;5370;50.132;8.626;2023-05-19T04:00:23;8.00;79.10
10644;DHT22;5370;50.132;8.626;2023-05-19T04:02:49;8.00;79.20
10644;DHT22;5370;50.132;8.626;2023-05-19T04:05:15;8.00;79.30
10644;DHT22;5370;50.132;8.626;2023-05-19T04:07:41;8.00;79.40
10644;DHT22;5370;50.132;8.626;2023-05-19T04:10:07;8.10;79.50
10644;DHT22;5370;50.132;8.626;2023-05-19T04:12:33;8.10;79.60
10644;DHT22;5370;50.132;8.626;2023-05-19T04:14:59;8.20;79.50
10644;DHT22;5370;50.132;8.626;2023-05-19T04:17:25;8.20;79.30
10644;DHT22;5370;50.132;8.626;2023-05-19T04:19:52;8.30;79.40
10644;DHT22;5370;50.132;8.626;2023-05-19T04:22:18;8.30;79.40
10644;DHT22;5370;50.132;8.626;2023-05-19T04:24:44;8.30;79.20
10644;DHT22;5370;50.132;8.626;2023-05-19T04:27:10;8.40;79.10
10644;DHT22;5370;50.132;8.626;2023-05-19T04:29:38;8.40;79.60
10644;DHT22;5370;50.132;8.626;2023-05-19T04:32:05;8.50;78.90
10644;DHT22;5370;50.132;8.626;2023-05-19T04:34:35;8.50;78.80
10644;DHT22;5370;50.132;8.626;2023-05-19T04:37:07;8.60;78.80
10644;DHT22;5370;50.132;8.626;2023-05-19T04:39:34;8.60;78.70
10644;DHT22;5370;50.132;8.626;2023-05-19T04:42:03;8.60;78.60
10644;DHT22;5370;50.132;8.626;2023-05-19T04:44:28;8.70;78.60
10644;DHT22;5370;50.132;8.626;2023-05-19T04:46:55;8.70;78.40
10644;DHT22;5370;50.132;8.626;2023-05-19T04:49:22;8.80;78.30
10644;DHT22;5370;50.132;8.626;2023-05-19T04:51:48;8.80;78.10
10644;DHT22;5370;50.132;8.626;2023-05-19T04:54:15;8.90;78.10
10644;DHT22;5370;50.132;8.626;2023-05-19T04:56:41;8.90;77.90
10644;DHT22;5370;50.132;8.626;2023-05-19T04:59:08;9.00;77.80
10644;DHT22;5370;50.132;8.626;2023-05-19T05:01:37;9.10;77.70
10644;DHT22;5370;50.132;8.626;2023-05-19T05:04:07;9.10;77.50
10644;DHT22;5370;50.132;8.626;2023-05-19T05:06:33;9.20;77.30
10644;DHT22;5370;50.132;8.626;2023-05-19T05:08:58;9.20;77.10
10644;DHT22;5370;50.132;8.626;2023-05-19T05:11:25;9.30;77.00
10644;DHT22;5370;50.132;8.626;2023-05-19T05:13:51;9.40;76.60
10644;DHT22;5370;50.132;8.626;2023-05-19T05:16:16;9.50;76.50
10644;DHT22;5370;50.132;8.626;2023-05-19T05:18:42;9.60;76.10
10644;DHT22;5370;50.132;8.626;2023-05-19T05:21:08;9.70;75.80
10644;DHT22;5370;50.132;8.626;2023-05-19T05:23:34;9.80;75.60
10644;DHT22;5370;50.132;8.626;2023-05-19T05:26:06;9.90;75.20
10644;DHT22;5370;50.132;8.626;2023-05-19T05:28:33;10.10;74.20
10644;DHT22;5370;50.132;8.626;2023-05-19T05:30:59;10.20;73.80
10644;DHT22;5370;50.132;8.626;2023-05-19T05:33:25;10.40;73.40
10644;DHT22;5370;50.132;8.626;2023-05-19T05:35:51;10.60;72.90
10644;DHT22;5370;50.132;8.626;2023-05-19T05:38:16;10.90;72.50
10644;DHT22;5370;50.132;8.626;2023-05-19T05:40:42;11.20;72.10
10644;DHT22;5370;50.132;8.626;2023-05-19T05:43:07;11.50;71.30
10644;DHT22;5370;50.132;8.626;2023-05-19T05:45:33;11.90;70.50
10644;DHT22;5370;50.132;8.626;2023-05-19T05:47:58;12.20;68.60
10644;DHT22;5370;50.132;8.626;2023-05-19T05:50:24;12.70;67.00
10644;DHT22;5370;50.132;8.626;2023-05-19T05:52:52;13.10;66.10
10644;DHT22;5370;50.132;8.626;2023-05-19T05:55:19;13.50;65.10
10644;DHT22;5370;50.132;8.626;2023-05-19T05:57:45;14.00;64.20
10644;DHT22;5370;50.132;8.626;2023-05-19T06:00:13;14.50;62.70
10644;DHT22;5370;50.132;8.626;2023-05-19T06:02:48;15.10;59.80
10644;DHT22;5370;50.132;8.626;2023-05-19T06:05:15;15.40;58.40
10644;DHT22;5370;50.132;8.626;2023-05-19T06:07:40;15.60;56.90
10644;DHT22;5370;50.132;8.626;2023-05-19T06:10:07;15.70;56.80
10644;DHT22;5370;50.132;8.626;2023-05-19T06:12:33;15.80;55.40
10644;DHT22;5370;50.132;8.626;2023-05-19T06:15:01;16.10;55.60
10644;DHT22;5370;50.132;8.626;2023-05-19T06:17:26;16.50;54.40
10644;DHT22;5370;50.132;8.626;2023-05-19T06:19:52;17.00;53.60
10644;DHT22;5370;50.132;8.626;2023-05-19T06:22:17;17.70;52.50
10644;DHT22;5370;50.132;8.626;2023-05-19T06:24:43;18.70;51.00
10644;DHT22;5370;50.132;8.626;2023-05-19T06:27:09;19.50;49.50
10644;DHT22;5370;50.132;8.626;2023-05-19T06:29:34;20.70;49.10
10644;DHT22;5370;50.132;8.626;2023-05-19T06:32:00;21.40;44.10
10644;DHT22;5370;50.132;8.626;2023-05-19T06:34:26;22.00;43.10
10644;DHT22;5370;50.132;8.626;2023-05-19T06:36:51;22.20;41.70
10644;DHT22;5370;50.132;8.626;2023-05-19T06:39:17;22.50;40.10
10644;DHT22;5370;50.132;8.626;2023-05-19T06:41:42;22.20;39.30
10644;DHT22;5370;50.132;8.626;2023-05-19T06:44:08;22.20;40.40
10644;DHT22;5370;50.132;8.626;2023-05-19T06:46:34;22.30;39.80
10644;DHT22;5370;50.132;8.626;2023-05-19T06:48:59;22.40;39.30
10644;DHT22;5370;50.132;8.626;2023-05-19T06:51:25;22.50;39.50
10644;DHT22;5370;50.132;8.626;2023-05-19T06:53:51;22.70;38.30
10644;DHT22;5370;50.132;8.626;2023-05-19T06:56:16;22.30;37.80
10644;DHT22;5370;50.132;8.626;2023-05-19T06:58:43;21.90;37.70
10644;DHT22;5370;50.132;8.626;2023-05-19T07:01:09;21.70;39.50
10644;DHT22;5370;50.132;8.626;2023-05-19T07:03:34;21.70;38.80
10644;DHT22;5370;50.132;8.626;2023-05-19T07:06:00;22.00;39.40
10644;DHT22;5370;50.132;8.626;2023-05-19T07:08:26;22.50;38.30
10644;DHT22;5370;50.132;8.626;2023-05-19T07:10:52;23.10;37.80
10644;DHT22;5370;50.132;8.626;2023-05-19T07:13:19;23.70;36.90
10644;DHT22;5370;50.132;8.626;2023-05-19T07:15:45;24.00;35.70
10644;DHT22;5370;50.132;8.626;2023-05-19T07:18:10;23.60;35.10
10644;DHT22;5370;50.132;8.626;2023-05-19T07:20:36;23.20;35.60
10644;DHT22;5370;50.132;8.626;2023-05-19T07:23:01;23.20;36.00
10644;DHT22;5370;50.132;8.626;2023-05-19T07:25:27;23.30;35.90
10644;DHT22;5370;50.132;8.626;2023-05-19T07:27:55;23.70;35.90
10644;DHT22;5370;50.132;8.626;2023-05-19T07:30:21;24.20;35.40
10644;DHT22;5370;50.132;8.626;2023-05-19T07:32:46;25.00;34.90
10644;DHT22;5370;50.132;8.626;2023-05-19T07:35:12;26.00;33.20
10644;DHT22;5370;50.132;8.626;2023-05-19T07:37:37;26.50;32.30
10644;DHT22;5370;50.132;8.626;2023-05-19T07:40:03;26.80;31.50
10644;DHT22;5370;50.132;8.626;2023-05-19T07:42:30;27.00;30.70
10644;DHT22;5370;50.132;8.626;2023-05-19T07:44:56;26.90;29.90
10644;DHT22;5370;50.132;8.626;2023-05-19T07:47:21;26.40;30.00
10644;DHT22;5370;50.132;8.626;2023-05-19T07:49:47;25.80;30.60
10644;DHT22;5370;50.132;8.626;2023-05-19T07:52:13;24.90;31.50
10644;DHT22;5370;50.132;8.626;2023-05-19T07:54:38;24.60;32.30
10644;DHT22;5370;50.132;8.626;2023-05-19T07:57:04;24.70;32.70
10644;DHT22;5370;50.132;8.626;2023-05-19T07:59:30;25.20;32.80
10644;DHT22;5370;50.132;8.626;2023-05-19T08:01:56;26.30;32.20
10644;DHT22;5370;50.132;8.626;2023-05-19T08:04:21;27.40;30.60
10644;DHT22;5370;50.132;8.626;2023-05-19T08:06:47;28.60;29.50
10644;DHT22;5370;50.132;8.626;2023-05-19T08:09:12;29.70;28.30
10644;DHT22;5370;50.132;8.626;2023-05-19T08:11:38;30.30;27.60
10644;DHT22;5370;50.132;8.626;2023-05-19T08:14:03;30.60;27.00
10644;DHT22;5370;50.132;8.626;2023-05-19T08:16:29;31.00;26.70
10644;DHT22;5370;50.132;8.626;2023-05-19T08:18:55;31.30;26.70
10644;DHT22;5370;50.132;8.626;2023-05-19T08:21:20;31.70;25.80
10644;DHT22;5370;50.132;8.626;2023-05-19T08:23:46;31.50;25.30
10644;DHT22;5370;50.132;8.626;2023-05-19T08:26:12;30.70;25.50
10644;DHT22;5370;50.132;8.626;2023-05-19T08:28:37;30.20;26.10
10644;DHT22;5370;50.132;8.626;2023-05-19T08:31:03;30.00;26.40
10644;DHT22;5370;50.132;8.626;2023-05-19T08:33:28;29.70;26.50
10644;DHT22;5370;50.132;8.626;2023-05-19T08:35:55;29.60;26.70
10644;DHT22;5370;50.132;8.626;2023-05-19T08:38:22;29.80;26.90
10644;DHT22;5370;50.132;8.626;2023-05-19T08:40:48;30.00;26.30
10644;DHT22;5370;50.132;8.626;2023-05-19T08:43:13;29.50;26.10
10644;DHT22;5370;50.132;8.626;2023-05-19T08:45:44;28.70;26.50
10644;DHT22;5370;50.132;8.626;2023-05-19T08:48:13;27.70;26.90
10644;DHT22;5370;50.132;8.626;2023-05-19T08:50:43;26.40;28.10
10644;DHT22;5370;50.132;8.626;2023-05-19T08:53:17;25.20;29.50
10644;DHT22;5370;50.132;8.626;2023-05-19T08:58:37;23.00;31.70
10644;DHT22;5370;50.132;8.626;2023-05-19T09:01:05;22.00;33.10
10644;DHT22;5370;50.132;8.626;2023-05-19T09:03:32;21.30;34.10
10644;DHT22;5370;50.132;8.626;2023-05-19T09:06:06;20.70;36.00
10644;DHT22;5370;50.132;8.626;2023-05-19T09:08:36;20.20;36.20
10644;DHT22;5370;50.132;8.626;2023-05-19T09:11:02;19.80;37.10
10644;DHT22;5370;50.132;8.626;2023-05-19T09:13:28;19.50;37.50
10644;DHT22;5370;50.132;8.626;2023-05-19T09:15:55;19.10;38.00
10644;DHT22;5370;50.132;8.626;2023-05-19T09:18:21;18.90;38.50
10644;DHT22;5370;50.132;8.626;2023-05-19T09:20:48;18.70;38.70
10644;DHT22;5370;50.132;8.626;2023-05-19T09:23:15;18.70;38.80
10644;DHT22;5370;50.132;8.626;2023-05-19T09:25:51;18.70;39.00
10644;DHT22;5370;50.132;8.626;2023-05-19T09:28:42;18.70;39.70
10644;DHT22;5370;50.132;8.626;2023-05-19T09:31:08;18.60;39.60
10644;DHT22;5370;50.132;8.626;2023-05-19T09:33:36;18.70;39.30
10644;DHT22;5370;50.132;8.626;2023-05-19T09:36:02;18.70;38.80
10644;DHT22;5370;50.132;8.626;2023-05-19T09:38:30;18.80;39.30
10644;DHT22;5370;50.132;8.626;2023-05-19T09:40:57;18.80;38.20
10644;DHT22;5370;50.132;8.626;2023-05-19T09:43:25;18.80;38.00
10644;DHT22;5370;50.132;8.626;2023-05-19T09:46:08;18.80;38.40
10644;DHT22;5370;50.132;8.626;2023-05-19T09:48:34;18.90;38.00
10644;DHT22;5370;50.132;8.626;2023-05-19T09:51:02;19.10;37.80
10644;DHT22;5370;50.132;8.626;2023-05-19T09:53:29;19.30;37.90
10644;DHT22;5370;50.132;8.626;2023-05-19T09:55:56;19.60;37.30
10644;DHT22;5370;50.132;8.626;2023-05-19T09:58:25;19.90;35.80
10644;DHT22;5370;50.132;8.626;2023-05-19T10:00:51;20.20;36.40
10644;DHT22;5370;50.132;8.626;2023-05-19T10:03:22;20.40;36.30
10644;DHT22;5370;50.132;8.626;2023-05-19T10:05:49;20.60;36.40
10644;DHT22;5370;50.132;8.626;2023-05-19T10:08:16;20.90;36.40
10644;DHT22;5370;50.132;8.626;2023-05-19T10:10:44;21.10;36.00
10644;DHT22;5370;50.132;8.626;2023-05-19T10:13:11;21.20;35.60
10644;DHT22;5370;50.132;8.626;2023-05-19T10:15:37;21.30;35.80
10644;DHT22;5370;50.132;8.626;2023-05-19T10:18:02;21.50;35.40
10644;DHT22;5370;50.132;8.626;2023-05-19T10:20:29;21.60;35.00
10644;DHT22;5370;50.132;8.626;2023-05-19T10:22:55;21.60;34.70
10644;DHT22;5370;50.132;8.626;2023-05-19T10:25:21;21.40;33.80
10644;DHT22;5370;50.132;8.626;2023-05-19T10:28:00;21.30;34.10
10644;DHT22;5370;50.132;8.626;2023-05-19T10:30:28;21.30;34.10
10644;DHT22;5370;50.132;8.626;2023-05-19T10:32:56;21.30;33.90
10644;DHT22;5370;50.132;8.626;2023-05-19T10:38:46;21.30;34.40
10644;DHT22;5370;50.132;8.626;2023-05-19T10:41:43;21.40;34.30
10644;DHT22;5370;50.132;8.626;2023-05-19T10:44:22;21.40;34.10
10644;DHT22;5370;50.132;8.626;2023-05-19T10:46:52;21.30;33.20
10644;DHT22;5370;50.132;8.626;2023-05-19T10:49:21;21.20;33.00
10644;DHT22;5370;50.132;8.626;2023-05-19T10:51:47;21.00;33.20
10644;DHT22;5370;50.132;8.626;2023-05-19T10:54:12;20.90;33.50
10644;DHT22;5370;50.132;8.626;2023-05-19T10:56:42;20.90;34.00
10644;DHT22;5370;50.132;8.626;2023-05-19T10:59:30;20.90;33.70
10644;DHT22;5370;50.132;8.626;2023-05-19T11:01:56;20.90;33.50
10644;DHT22;5370;50.132;8.626;2023-05-19T11:04:49;20.80;33.50
10644;DHT22;5370;50.132;8.626;2023-05-19T11:07:19;20.90;34.10
10644;DHT22;5370;50.132;8.626;2023-05-19T11:09:52;20.90;34.60
10644;DHT22;5370;50.132;8.626;2023-05-19T11:12:22;21.10;35.00
10644;DHT22;5370;50.132;8.626;2023-05-19T11:14:51;21.20;35.00
10644;DHT22;5370;50.132;8.626;2023-05-19T11:17:18;21.20;34.60
10644;DHT22;5370;50.132;8.626;2023-05-19T11:19:56;21.20;34.40
10644;DHT22;5370;50.132;8.626;2023-05-19T11:22:23;21.20;34.60
10644;DHT22;5370;50.132;8.626;2023-05-19T11:24:50;21.10;34.10
10644;DHT22;5370;50.132;8.626;2023-05-19T11:27:27;20.90;34.50
10644;DHT22;5370;50.132;8.626;2023-05-19T11:29:56;20.80;35.00
10644;DHT22;5370;50.132;8.626;2023-05-19T11:32:25;20.90;35.70
10644;DHT22;5370;50.132;8.626;2023-05-19T11:34:51;20.90;35.80
10644;DHT22;5370;50.132;8.626;2023-05-19T11:37:18;21.00;36.00
10644;DHT22;5370;50.132;8.626;2023-05-19T11:39:44;21.10;35.90
10644;DHT22;5370;50.132;8.626;2023-05-19T11:42:11;21.10;35.60
10644;DHT22;5370;50.132;8.626;2023-05-19T11:44:37;21.00;35.80
10644;DHT22;5370;50.132;8.626;2023-05-19T11:47:06;20.90;36.00
10644;DHT22;5370;50.132;8.626;2023-05-19T11:49:32;20.90;36.10
10644;DHT22;5370;50.132;8.626;2023-05-19T11:52:02;20.80;35.80
10644;DHT22;5370;50.132;8.626;2023-05-19T11:54:32;20.90;36.40
10644;DHT22;5370;50.132;8.626;2023-05-19T11:57:01;21.00;37.00
10644;DHT22;5370;50.132;8.626;2023-05-19T11:59:31;21.00;36.30
10644;DHT22;5370;50.132;8.626;2023-05-19T12:02:00;21.00;36.40
10644;DHT22;5370;50.132;8.626;2023-05-19T12:04:27;21.00;36.90
10644;DHT22;5370;50.132;8.626;2023-05-19T12:06:53;21.20;37.00
10644;DHT22;5370;50.132;8.626;2023-05-19T12:09:21;21.20;36.30
10644;DHT22;5370;50.132;8.626;2023-05-19T12:11:48;21.20;36.70
10644;DHT22;5370;50.132;8.626;2023-05-19T12:14:15;21.20;36.70
10644;DHT22;5370;50.132;8.626;2023-05-19T12:16:41;21.10;36.50
10644;DHT22;5370;50.132;8.626;2023-05-19T12:19:07;21.20;36.90
10644;DHT22;5370;50.132;8.626;2023-05-19T12:21:34;21.30;36.70
10644;DHT22;5370;50.132;8.626;2023-05-19T12:24:00;21.30;36.60
10644;DHT22;5370;50.132;8.626;2023-05-19T12:26:26;21.20;36.80
10644;DHT22;5370;50.132;8.626;2023-05-19T12:28:51;21.20;36.80
10644;DHT22;5370;50.132;8.626;2023-05-19T12:31:18;21.10;36.80
10644;DHT22;5370;50.132;8.626;2023-05-19T12:33:47;21.20;37.30
10644;DHT22;5370;50.132;8.626;2023-05-19T12:36:12;21.30;36.90
10644;DHT22;5370;50.132;8.626;2023-05-19T12:38:38;21.50;37.00
10644;DHT22;5370;50.132;8.626;2023-05-19T12:41:04;21.60;36.90
10644;DHT22;5370;50.132;8.626;2023-05-19T12:43:31;21.70;36.80
10644;DHT22;5370;50.132;8.626;2023-05-19T12:45:57;21.80;36.80
10644;DHT22;5370;50.132;8.626;2023-05-19T12:48:23;21.80;36.60
10644;DHT22;5370;50.132;8.626;2023-05-19T12:50:50;21.90;36.40
10644;DHT22;5370;50.132;8.626;2023-05-19T12:53:16;22.10;36.20
10644;DHT22;5370;50.132;8.626;2023-05-19T12:55:43;22.30;36.40
10644;DHT22;5370;50.132;8.626;2023-05-19T12:58:14;22.30;35.80
10644;DHT22;5370;50.132;8.626;2023-05-19T13:00:44;22.40;35.60
10644;DHT22;5370;50.132;8.626;2023-05-19T13:03:17;22.30;35.70
10644;DHT22;5370;50.132;8.626;2023-05-19T13:05:45;22.20;35.70
10644;DHT22;5370;50.132;8.626;2023-05-19T13:08:13;22.20;36.00
10644;DHT22;5370;50.132;8.626;2023-05-19T13:10:40;22.20;35.80
10644;DHT22;5370;50.132;8.626;2023-05-19T13:13:06;22.40;36.10
10644;DHT22;5370;50.132;8.626;2023-05-19T13:15:35;22.60;36.10
10644;DHT22;5370;50.132;8.626;2023-05-19T13:18:03;22.80;35.70
10644;DHT22;5370;50.132;8.626;2023-05-19T13:20:29;22.70;35.70
10644;DHT22;5370;50.132;8.626;2023-05-19T13:22:54;22.60;35.50
10644;DHT22;5370;50.132;8.626;2023-05-19T13:25:21;22.60;35.50
10644;DHT22;5370;50.132;8.626;2023-05-19T13:27:47;22.50;35.70
10644;DHT22;5370;50.132;8.626;2023-05-19T13:30:14;22.50;35.90
10644;DHT22;5370;50.132;8.626;2023-05-19T13:32:42;22.40;35.60
10644;DHT22;5370;50.132;8.626;2023-05-19T13:35:08;22.50;35.60
10644;DHT22;5370;50.132;8.626;2023-05-19T13:37:34;22.60;35.30
10644;DHT22;5370;50.132;8.626;2023-05-19T13:40:00;22.90;35.30
10644;DHT22;5370;50.132;8.626;2023-05-19T13:42:26;23.00;34.30
10644;DHT22;5370;50.132;8.626;2023-05-19T13:44:55;23.20;34.30
10644;DHT22;5370;50.132;8.626;2023-05-19T13:47:22;23.20;33.80
10644;DHT22;5370;50.132;8.626;2023-05-19T13:49:48;23.30;33.70
10644;DHT22;5370;50.132;8.626;2023-05-19T13:52:14;23.50;33.50
10644;DHT22;5370;50.132;8.626;2023-05-19T13:54:39;23.60;33.70
10644;DHT22;5370;50.132;8.626;2023-05-19T13:57:05;23.70;33.10
10644;DHT22;5370;50.132;8.626;2023-05-19T13:59:31;23.60;33.10
10644;DHT22;5370;50.132;8.626;2023-05-19T14:01:57;23.70;33.00
10644;DHT22;5370;50.132;8.626;2023-05-19T14:04:22;23.70;33.20
10644;DHT22;5370;50.132;8.626;2023-05-19T14:06:49;23.70;32.90
10644;DHT22;5370;50.132;8.626;2023-05-19T14:09:14;23.60;32.90
10644;DHT22;5370;50.132;8.626;2023-05-19T14:11:41;23.60;33.00
10644;DHT22;5370;50.132;8.626;2023-05-19T14:14:06;23.50;32.90
10644;DHT22;5370;50.132;8.626;2023-05-19T14:16:32;23.20;33.00
10644;DHT22;5370;50.132;8.626;2023-05-19T14:18:58;23.10;33.20
10644;DHT22;5370;50.132;8.626;2023-05-19T14:21:23;23.00;33.30
10644;DHT22;5370;50.132;8.626;2023-05-19T14:23:49;23.00;33.50
10644;DHT22;5370;50.132;8.626;2023-05-19T14:26:15;22.90;34.30
10644;DHT22;5370;50.132;8.626;2023-05-19T14:28:40;22.90;34.90
10644;DHT22;5370;50.132;8.626;2023-05-19T14:31:13;22.70;35.00
10644;DHT22;5370;50.132;8.626;2023-05-19T14:33:41;22.50;34.90
10644;DHT22;5370;50.132;8.626;2023-05-19T14:36:08;22.50;35.80
10644;DHT22;5370;50.132;8.626;2023-05-19T14:38:34;22.40;35.60
10644;DHT22;5370;50.132;8.626;2023-05-19T14:40:59;22.40;35.50
10644;DHT22;5370;50.132;8.626;2023-05-19T14:43:25;22.40;35.60
10644;DHT22;5370;50.132;8.626;2023-05-19T14:45:50;22.40;36.30
10644;DHT22;5370;50.132;8.626;2023-05-19T14:48:16;22.40;36.10
10644;DHT22;5370;50.132;8.626;2023-05-19T14:50:42;22.40;35.90
10644;DHT22;5370;50.132;8.626;2023-05-19T14:53:07;22.40;36.30
10644;DHT22;5370;50.132;8.626;2023-05-19T14:55:33;22.40;36.20
10644;DHT22;5370;50.132;8.626;2023-05-19T14:57:58;22.30;36.20
10644;DHT22;5370;50.132;8.626;2023-05-19T15:00:24;22.20;36.40
10644;DHT22;5370;50.132;8.626;2023-05-19T15:02:53;22.10;36.60
10644;DHT22;5370;50.132;8.626;2023-05-19T15:05:19;22.20;36.60
10644;DHT22;5370;50.132;8.626;2023-05-19T15:07:45;22.10;36.90
10644;DHT22;5370;50.132;8.626;2023-05-19T15:10:10;22.00;37.30
10644;DHT22;5370;50.132;8.626;2023-05-19T15:12:36;21.90;37.30
10644;DHT22;5370;50.132;8.626;2023-05-19T15:15:02;21.80;37.30
10644;DHT22;5370;50.132;8.626;2023-05-19T15:17:28;21.70;37.50
10644;DHT22;5370;50.132;8.626;2023-05-19T15:19:53;21.60;37.60
10644;DHT22;5370;50.132;8.626;2023-05-19T15:22:19;21.50;37.90
10644;DHT22;5370;50.132;8.626;2023-05-19T15:24:45;21.50;38.40
10644;DHT22;5370;50.132;8.626;2023-05-19T15:27:10;21.40;38.80
10644;DHT22;5370;50.132;8.626;2023-05-19T15:29:36;21.30;39.00
10644;DHT22;5370;50.132;8.626;2023-05-19T15:32:02;21.10;39.10
10644;DHT22;5370;50.132;8.626;2023-05-19T15:34:27;21.00;39.60
10644;DHT22;5370;50.132;8.626;2023-05-19T15:36:53;20.90;39.90
10644;DHT22;5370;50.132;8.626;2023-05-19T15:39:19;21.00;40.10
10644;DHT22;5370;50.132;8.626;2023-05-19T15:41:44;21.10;39.90
10644;DHT22;5370;50.132;8.626;2023-05-19T15:44:10;21.20;39.00
10644;DHT22;5370;50.132;8.626;2023-05-19T15:46:35;21.30;38.60
10644;DHT22;5370;50.132;8.626;2023-05-19T15:49:01;21.30;38.00
10644;DHT22;5370;50.132;8.626;2023-05-19T15:51:27;21.30;37.40
10644;DHT22;5370;50.132;8.626;2023-05-19T15:53:53;21.30;37.30
10644;DHT22;5370;50.132;8.626;2023-05-19T15:56:18;21.20;37.20
10644;DHT22;5370;50.132;8.626;2023-05-19T15:58:44;21.10;37.10
10644;DHT22;5370;50.132;8.626;2023-05-19T16:01:10;21.00;37.00
10644;DHT22;5370;50.132;8.626;2023-05-19T16:03:36;20.90;37.20
10644;DHT22;5370;50.132;8.626;2023-05-19T16:06:02;21.00;37.40
10644;DHT22;5370;50.132;8.626;2023-05-19T16:08:27;21.00;36.80
10644;DHT22;5370;50.132;8.626;2023-05-19T16:10:53;21.10;36.70
10644;DHT22;5370;50.132;8.626;2023-05-19T16:13:19;21.20;36.60
10644;DHT22;5370;50.132;8.626;2023-05-19T16:15:45;21.30;36.50